createdAt,value
2023-02-09T02:22:53.596Z,63.30
2023-02-09T02:26:47.673Z,63.02
2023-02-09T02:30:49.693Z,62.93
2023-02-09T02:34:34.011Z,62.81
2023-02-09T02:42:19.729Z,62.95
2023-02-09T02:46:06.368Z,62.90
2023-02-09T02:52:57.077Z,62.58
2023-02-09T02:56:10.013Z,62.60
2023-02-09T02:59:39.825Z,62.71
2023-02-09T03:03:13.129Z,62.87
2023-02-09T03:06:35.483Z,62.80
2023-02-09T03:09:55.465Z,62.81
2023-02-09T03:13:37.577Z,62.88
2023-02-09T03:17:31.869Z,62.61
2023-02-09T03:25:12.772Z,62.62
2023-02-09T03:28:40.138Z,62.77
2023-02-09T03:32:07.681Z,62.93
2023-02-09T03:35:42.950Z,63.11
2023-02-09T03:39:24.753Z,63.21
2023-02-09T03:42:51.198Z,63.26
2023-02-09T03:46:28.028Z,63.16
2023-02-09T03:49:45.103Z,63.15
2023-02-09T03:53:14.701Z,63.16
2023-02-09T03:56:57.949Z,63.03
2023-02-09T04:00:36.423Z,63.07
2023-02-09T04:03:56.162Z,63.16
2023-02-09T04:07:37.292Z,63.10
2023-02-09T04:11:08.677Z,62.99
2023-02-09T04:14:31.770Z,63.01
2023-02-09T04:17:51.955Z,63.11
2023-02-09T04:21:16.772Z,63.15
2023-02-09T04:24:47.705Z,63.16
2023-02-09T04:28:16.231Z,63.06
2023-02-09T04:35:52.336Z,63.06
2023-02-09T04:50:12.059Z,63.11
2023-02-09T05:01:40.086Z,63.19
2023-02-09T05:08:52.840Z,62.83
2023-02-09T05:12:06.090Z,62.84
2023-02-09T05:33:35.782Z,63.06
2023-02-09T05:37:20.256Z,63.04
2023-02-09T05:48:03.564Z,63.12
2023-02-09T05:51:25.197Z,63.13
2023-02-09T06:25:13.702Z,63.34
2023-02-09T06:32:49.240Z,63.43
2023-02-09T06:40:42.622Z,63.59
2023-02-09T06:44:21.003Z,63.66
2023-02-09T06:54:16.764Z,63.80
2023-02-09T09:52:53.039Z,63.58
2023-02-09T09:59:24.170Z,63.42
2023-02-09T10:28:04.159Z,62.91
2023-02-09T10:31:57.431Z,62.96
2023-02-09T13:55:13.773Z,61.49
2023-02-09T14:06:08.685Z,61.59
2023-02-09T14:13:47.752Z,61.71
2023-02-09T15:12:16.083Z,61.61
2023-02-09T15:20:22.040Z,61.55
2023-02-09T15:48:56.610Z,61.60
2023-02-09T15:52:46.092Z,61.58
2023-02-09T16:07:14.130Z,61.43
2023-02-09T16:11:03.745Z,61.36
2023-02-09T16:17:49.139Z,61.44
2023-02-09T16:21:03.572Z,61.45
2023-02-09T16:24:19.263Z,61.33
2023-02-09T16:27:49.002Z,61.29
2023-02-09T16:31:10.477Z,61.24
2023-02-09T16:34:38.303Z,61.31
2023-02-09T16:37:49.195Z,61.34
2023-02-09T16:41:01.779Z,61.35
2023-02-09T16:44:39.567Z,61.24
2023-02-09T16:48:03.550Z,61.18
2023-02-09T16:51:14.412Z,61.13
2023-02-09T16:54:25.322Z,61.16
2023-02-09T16:57:40.193Z,61.18
2023-02-09T17:00:53.505Z,61.21
2023-02-09T17:04:05.726Z,61.26
2023-02-09T17:07:12.617Z,61.30
2023-02-09T17:10:31.507Z,61.29
2023-02-09T17:13:40.974Z,61.27
2023-02-09T17:16:53.950Z,61.24
2023-02-09T17:19:59.441Z,61.25
2023-02-09T17:23:08.446Z,61.21
2023-02-09T17:26:21.712Z,61.24
2023-02-09T17:29:31.930Z,61.25
2023-02-09T17:32:38.241Z,61.29
2023-02-09T17:36:22.293Z,61.27
2023-02-09T17:39:02.276Z,61.30
2023-02-09T17:42:13.303Z,61.30
2023-02-09T17:45:24.518Z,61.31
2023-02-09T17:48:39.045Z,61.27
2023-02-09T17:51:53.417Z,61.28
2023-02-09T17:55:07.564Z,61.26
2023-02-09T17:58:17.650Z,61.26
2023-02-09T18:01:44.542Z,61.27
2023-02-09T18:04:52.879Z,61.30
2023-02-09T18:08:00.343Z,61.27
2023-02-09T18:11:09.301Z,61.28
2023-02-09T18:14:17.225Z,61.27
2023-02-09T18:17:26.934Z,61.25
2023-02-09T18:20:40.791Z,61.26
2023-02-09T18:23:55.528Z,61.30
2023-02-09T18:27:07.330Z,61.29
2023-02-09T18:30:20.265Z,61.32
2023-02-09T18:33:33.830Z,61.26
2023-02-09T18:36:46.236Z,61.30
2023-02-09T18:39:56.316Z,61.26
2023-02-09T18:43:06.754Z,61.19
2023-02-09T18:46:18.533Z,61.19
2023-02-09T18:49:27.770Z,61.21
2023-02-09T18:52:42.012Z,61.21
2023-02-09T18:55:55.324Z,61.28
2023-02-09T18:59:05.071Z,61.34
2023-02-09T19:02:17.545Z,61.33
2023-02-09T19:05:29.025Z,61.33
2023-02-09T19:08:47.868Z,61.34
2023-02-09T19:11:57.407Z,61.35
2023-02-09T19:15:19.223Z,61.44
2023-02-09T19:18:35.802Z,61.43
2023-02-09T19:21:45.911Z,61.42
2023-02-09T19:25:02.451Z,61.46
2023-02-09T19:28:13.558Z,61.49
2023-02-09T19:31:34.287Z,61.52
2023-02-09T19:34:46.918Z,61.54
2023-02-09T19:37:57.124Z,61.54
2023-02-09T19:41:10.815Z,61.62
2023-02-09T19:44:26.603Z,61.66
2023-02-09T19:47:39.539Z,61.68
2023-02-09T19:50:51.503Z,61.75
2023-02-09T19:54:01.654Z,61.66
2023-02-09T19:57:16.843Z,61.62
2023-02-09T20:00:32.202Z,61.57
2023-02-09T20:03:50.143Z,61.52
2023-02-09T20:06:56.929Z,61.52
2023-02-09T20:10:05.196Z,61.54
2023-02-09T20:13:13.058Z,61.53
2023-02-09T20:16:42.390Z,61.53
2023-02-09T20:19:59.328Z,61.53
2023-02-09T20:23:18.333Z,61.54
2023-02-09T20:26:34.393Z,61.54
2023-02-09T20:29:47.315Z,61.57
2023-02-09T20:33:10.488Z,61.64
2023-02-09T20:36:28.564Z,61.62
2023-02-09T20:39:38.882Z,61.56
2023-02-09T20:43:15.584Z,61.51
2023-02-09T20:46:46.838Z,61.59
2023-02-09T20:50:05.521Z,61.60
2023-02-09T20:53:18.441Z,61.61
2023-02-09T20:56:28.589Z,61.58
2023-02-09T20:59:42.996Z,61.56
2023-02-09T21:02:54.304Z,61.62
2023-02-09T21:06:10.654Z,61.58
2023-02-09T21:09:39.002Z,61.66
2023-02-09T21:12:50.089Z,61.63
2023-02-09T21:16:06.429Z,61.62
2023-02-09T21:19:20.617Z,61.59
2023-02-09T21:22:39.240Z,61.58
2023-02-09T21:25:50.355Z,61.60
2023-02-09T21:29:06.557Z,61.61
2023-02-09T21:32:25.662Z,61.60
2023-02-09T21:35:39.126Z,61.63
2023-02-09T21:38:56.965Z,61.67
2023-02-09T21:42:27.094Z,61.67
2023-02-09T21:45:36.335Z,61.72
2023-02-09T21:48:51.711Z,61.74
2023-02-09T21:52:04.527Z,61.72
2023-02-09T21:55:15.956Z,61.75
2023-02-09T21:58:08.681Z,61.77
2023-02-09T22:01:09.959Z,61.79
2023-02-09T22:04:00.305Z,61.72
2023-02-09T22:06:57.054Z,61.66
2023-02-09T22:09:56.509Z,61.68
2023-02-09T22:13:11.894Z,61.73
2023-02-09T22:16:26.713Z,61.82
2023-02-09T22:19:38.281Z,61.90
2023-02-09T22:22:52.007Z,62.01
2023-02-09T22:26:27.781Z,62.02
2023-02-09T22:29:46.160Z,62.01
2023-02-09T22:32:57.747Z,61.98
2023-02-09T22:36:11.042Z,62.10
2023-02-09T22:39:24.989Z,62.13
2023-02-09T22:42:38.268Z,62.09
2023-02-09T22:46:05.001Z,62.13
2023-02-09T22:49:16.215Z,62.04
2023-02-09T22:52:30.314Z,62.05
2023-02-09T22:55:49.442Z,62.09
2023-02-09T22:59:01.120Z,62.14
2023-02-09T23:02:26.098Z,62.17
2023-02-09T23:05:40.252Z,62.15
2023-02-09T23:08:51.133Z,62.17
2023-02-09T23:12:02.816Z,62.14
2023-02-09T23:15:15.135Z,62.17
2023-02-09T23:18:31.950Z,62.15
2023-02-09T23:21:52.754Z,62.13
2023-02-09T23:25:02.542Z,62.13
2023-02-09T23:28:19.073Z,62.10
2023-02-09T23:31:34.447Z,62.15
2023-02-09T23:34:46.271Z,62.23
2023-02-09T23:38:03.520Z,62.24
2023-02-09T23:41:26.703Z,62.27
2023-02-09T23:44:47.416Z,62.31
2023-02-09T23:47:59.421Z,62.34
2023-02-09T23:51:14.905Z,62.29
2023-02-09T23:54:24.856Z,62.28
2023-02-09T23:57:35.003Z,62.35
